Time;durP1;ratioP1;P1;durP2;ratioP2;P2;SDS_P1;SDS_P2;PMS_P1;PMS_P2;Temp;Humidity;BMP_temperature;BMP_pressure;BME280_temperature;BME280_humidity;BME280_pressure;Samples;Min_cycle;Max_cycle;Signal;HPM_P1;HPM_P2
2022/01/10 00:01:36;;;;;;;23.70;19.45;;;;;;;14.75;65.75;99720.72;144994;570;5004;-86
2022/01/10 00:04:30;;;;;;;22.25;18.60;;;;;;;14.73;66.27;99725.09;144994;591;5002;-86
2022/01/10 00:07:13;;;;;;;18.02;14.98;;;;;;;14.69;66.35;99720.75;144994;580;5002;-86
2022/01/10 00:10:02;;;;;;;;;;;;;;;;;;;;;
2022/01/10 00:12:58;;;;;;;14.13;12.27;;;;;;;14.71;66.14;99720.72;144994;565;5004;-82
2022/01/10 00:15:34;;;;;;;13.48;11.20;;;;;;;14.69;66.79;99723.34;144994;605;5004;-86
2022/01/10 00:18:05;;;;;;;14.63;11.52;;;;;;;14.56;66.97;99719.00;144994;599;5004;-85
2022/01/10 00:20:41;;;;;;;11.68;10.27;;;;;;;14.57;66.72;99718.13;144994;563;5004;-84
2022/01/10 00:23:19;;;;;;;13.62;11.55;;;;;;;14.60;66.50;99711.19;144994;604;5004;-85
2022/01/10 00:26:00;;;;;;;14.43;11.80;;;;;;;14.63;66.54;99705.06;144994;749;5004;-83
2022/01/10 00:28:38;;;;;;;17.08;11.40;;;;;;;14.66;66.61;99705.94;144994;497;5002;-85
2022/01/10 00:31:26;;;;;;;;;;;;;;;;;;;;;
2022/01/10 00:33:54;;;;;;;15.82;11.43;;;;;;;14.66;66.25;99700.69;144994;580;5004;-86
2022/01/10 00:36:22;;;;;;;14.13;11.85;;;;;;;14.65;66.13;99695.47;144994;586;5004;-87
2022/01/10 00:38:48;;;;;;;13.90;12.00;;;;;;;14.59;66.49;99693.75;144994;582;5004;-84
2022/01/10 00:41:15;;;;;;;14.10;11.93;;;;;;;14.51;66.41;99693.75;144994;594;5004;-84
2022/01/10 00:43:46;;;;;;;14.77;12.05;;;;;;;14.44;66.76;99686.81;144994;567;5005;-84
2022/01/10 00:46:13;;;;;;;15.05;12.00;;;;;;;14.36;66.70;99690.31;144994;567;5004;-84
2022/01/10 00:48:40;;;;;;;13.13;11.48;;;;;;;14.29;66.52;99687.72;144994;609;5004;-84
2022/01/10 00:51:09;;;;;;;13.82;11.82;;;;;;;14.22;66.71;99687.72;144994;744;5005;-86
2022/01/10 00:53:36;;;;;;;13.02;11.27;;;;;;;14.11;66.90;99688.63;144994;561;5004;-85
2022/01/10 00:56:03;;;;;;;11.50;10.15;;;;;;;14.05;67.03;99685.16;144994;568;5004;-83
2022/01/10 00:58:30;;;;;;;10.70;9.60;;;;;;;13.98;67.09;99686.88;144994;606;5005;-85
2022/01/10 01:00:56;;;;;;;12.57;10.00;;;;;;;13.93;67.28;99680.81;144994;629;5004;-85
2022/01/10 01:03:37;;;;;;;;;;;;;;;;;;;;;
2022/01/10 01:06:11;;;;;;;12.18;10.10;;;;;;;13.91;67.52;99677.34;144994;685;5002;-85
2022/01/10 01:08:41;;;;;;;12.60;10.32;;;;;;;13.94;68.14;99664.28;144994;716;5002;-84
2022/01/10 01:14:11;;;;;;;13.18;10.75;;;;;;;14.05;67.93;99652.09;144994;571;5004;-86
2022/01/10 01:16:45;;;;;;;12.37;10.30;;;;;;;14.09;67.43;99656.44;144994;630;5004;-86
2022/01/10 01:25:06;;;;;;;13.93;10.13;;;;;;;14.08;67.32;99636.44;144994;568;5004;-85
2022/01/10 01:27:40;;;;;;;13.73;9.73;;;;;;;14.07;67.07;99634.69;144994;616;5004;-85
2022/01/10 01:30:16;;;;;;;12.57;9.82;;;;;;;14.10;67.30;99632.06;144994;766;5004;-86
2022/01/10 01:32:42;;;;;;;13.52;10.27;;;;;;;14.10;67.80;99626.84;144994;606;5004;-85
2022/01/10 01:35:09;;;;;;;12.98;10.13;;;;;;;14.09;67.35;99629.47;144994;580;5004;-85
2022/01/10 01:37:37;;;;;;;13.05;10.70;;;;;;;14.06;67.84;99624.25;144994;621;5004;-86
2022/01/10 01:40:07;;;;;;;12.82;10.80;;;;;;;14.01;67.48;99626.00;144994;573;5004;-85
2022/01/10 01:42:37;;;;;;;14.87;10.75;;;;;;;13.96;67.94;99620.78;144994;735;5004;-85
2022/01/10 01:45:08;;;;;;;13.27;11.48;;;;;;;13.91;67.77;99612.09;144994;611;5004;-85
2022/01/10 01:47:35;;;;;;;14.35;10.95;;;;;;;13.86;67.76;99604.28;144994;727;5004;-85
2022/01/10 01:50:03;;;;;;;14.93;11.35;;;;;;;13.83;68.24;99606.03;144994;586;5004;-85
2022/01/10 01:52:30;;;;;;;13.95;11.30;;;;;;;13.78;68.38;99606.91;144994;613;5004;-84
2022/01/10 01:54:57;;;;;;;14.57;11.38;;;;;;;13.74;68.41;99605.19;144994;571;5004;-85
2022/01/10 01:57:23;;;;;;;13.93;11.18;;;;;;;13.73;68.42;99607.78;144994;608;5004;-85
2022/01/10 01:59:52;;;;;;;13.02;10.50;;;;;;;13.69;68.52;99604.28;144994;567;5004;-85
2022/01/10 02:02:19;;;;;;;12.37;9.98;;;;;;;13.65;68.70;99596.47;144994;616;5004;-85
2022/01/10 02:04:45;;;;;;;10.32;8.43;;;;;;;13.55;69.27;99600.84;144994;589;5004;-85
2022/01/10 02:07:12;;;;;;;10.40;7.75;;;;;;;13.53;69.27;99597.37;144994;898;5004;-86
2022/01/10 02:09:44;;;;;;;7.97;6.35;;;;;;;13.52;69.27;99606.03;144994;593;5004;-84
2022/01/10 02:12:12;;;;;;;7.40;6.50;;;;;;;13.45;69.36;99609.53;144993;582;5004;-85
2022/01/10 02:14:40;;;;;;;7.20;6.20;;;;;;;13.46;69.13;99606.94;144994;590;5002;-85
2022/01/10 02:17:06;;;;;;;6.87;6.05;;;;;;;13.46;69.34;99611.25;144994;904;5002;-85
2022/01/10 02:19:33;;;;;;;8.27;6.68;;;;;;;13.40;69.30;99606.91;144994;633;5002;-86
2022/01/10 02:21:59;;;;;;;10.40;8.13;;;;;;;13.42;69.31;99613.84;144994;572;5002;-86
2022/01/10 02:24:26;;;;;;;11.12;9.52;;;;;;;13.40;69.86;99606.91;144994;658;5002;-86
2022/01/10 02:26:52;;;;;;;13.25;10.88;;;;;;;13.40;69.58;99609.53;144994;563;5002;-87
2022/01/10 02:29:19;;;;;;;13.95;11.18;;;;;;;13.39;69.26;99603.47;144994;587;5002;-86
2022/01/10 02:31:45;;;;;;;15.95;12.10;;;;;;;13.40;69.24;99602.56;144994;725;5002;-84
2022/01/10 02:34:16;;;;;;;14.80;11.43;;;;;;;13.40;69.51;99607.78;144994;612;5002;-85
2022/01/10 02:36:44;;;;;;;14.18;10.73;;;;;;;13.43;69.45;99599.97;144994;573;5002;-86
2022/01/10 02:39:11;;;;;;;13.32;10.80;;;;;;;13.45;69.32;99605.19;144994;564;5002;-86
2022/01/10 02:41:40;;;;;;;16.48;11.95;;;;;;;13.50;69.30;99603.44;144994;772;4566;-85
2022/01/10 02:44:14;;;;;;;13.95;11.00;;;;;;;13.54;69.36;99604.31;144994;595;4572;-85
2022/01/10 02:46:43;;;;;;;14.90;11.68;;;;;;;13.60;69.47;99594.75;144994;583;4573;-85
2022/01/10 02:49:16;;;;;;;13.85;10.95;;;;;;;13.67;69.38;99594.75;144992;632;6002;-86
2022/01/10 02:51:56;;;;;;;15.30;11.23;;;;;;;13.70;69.55;99592.16;144992;632;6002;-80
2022/01/10 02:54:25;;;;;;;14.20;11.25;;;;;;;13.76;69.34;99584.28;144991;593;6002;-84
2022/01/10 02:56:55;;;;;;;16.65;11.27;;;;;;;13.81;69.02;99590.41;144992;563;6002;-86
2022/01/10 02:59:23;;;;;;;14.43;10.82;;;;;;;13.84;68.95;99589.50;144992;611;6002;-84
2022/01/10 03:01:49;;;;;;;14.30;10.95;;;;;;;13.83;69.11;99572.13;144992;686;6002;-84
2022/01/10 03:04:16;;;;;;;14.55;10.70;;;;;;;13.79;68.83;99579.06;144992;585;6002;-84
2022/01/10 03:06:44;;;;;;;13.07;10.45;;;;;;;13.76;68.81;99582.56;144991;569;6002;-87
2022/01/10 03:09:11;;;;;;;14.15;10.77;;;;;;;13.72;68.92;99585.19;144992;719;6002;-85
2022/01/10 03:11:40;;;;;;;12.55;9.80;;;;;;;13.69;69.19;99586.03;144992;593;6002;-85
2022/01/10 03:14:07;;;;;;;13.68;11.32;;;;;;;13.67;69.13;99579.09;144992;735;6002;-87
2022/01/10 03:16:34;;;;;;;15.95;11.45;;;;;;;13.64;69.07;99574.75;144992;569;6002;-85
2022/01/10 03:19:00;;;;;;;15.98;10.80;;;;;;;13.63;69.51;99573.00;144992;573;6002;-87
2022/01/10 03:21:27;;;;;;;15.07;10.73;;;;;;;13.60;69.29;99575.63;144992;588;6002;-85
2022/01/10 03:23:54;;;;;;;14.68;10.43;;;;;;;13.61;69.28;99585.19;144992;631;6002;-86
2022/01/10 03:26:22;;;;;;;14.75;10.68;;;;;;;13.58;69.21;99579.97;144992;629;6002;-85
2022/01/10 03:28:48;;;;;;;13.95;10.13;;;;;;;13.57;69.31;99579.13;144992;567;6002;-86
2022/01/10 03:31:21;;;;;;;14.57;10.82;;;;;;;13.55;69.51;99577.38;144992;613;6002;-84
2022/01/10 03:33:50;;;;;;;13.17;9.90;;;;;;;13.53;69.40;99579.13;144992;631;6002;-85
2022/01/10 03:36:18;;;;;;;12.95;10.27;;;;;;;13.54;69.79;99584.31;144992;620;6004;-86
2022/01/10 03:38:46;;;;;;;12.40;9.95;;;;;;;13.53;69.96;99581.72;144992;563;6002;-85
2022/01/10 03:41:12;;;;;;;12.30;8.90;;;;;;;13.50;69.72;99576.50;144992;589;6002;-84
2022/01/10 03:43:39;;;;;;;10.57;8.55;;;;;;;13.51;69.92;99573.03;144992;687;6002;-86
2022/01/10 03:46:06;;;;;;;11.63;8.75;;;;;;;13.51;69.98;99576.50;144992;622;6002;-86
2022/01/10 03:48:33;;;;;;;12.07;8.50;;;;;;;13.50;69.54;99574.75;144992;569;6002;-85
2022/01/10 03:50:59;;;;;;;9.73;7.32;;;;;;;13.51;70.01;99571.28;144992;570;6002;-85
2022/01/10 03:53:29;;;;;;;8.05;6.87;;;;;;;13.50;70.13;99566.94;144992;575;6002;-85
2022/01/10 03:55:55;;;;;;;11.02;6.93;;;;;;;13.50;70.12;99564.31;144992;587;6002;-85
2022/01/10 03:58:25;;;;;;;9.00;6.78;;;;;;;13.50;69.77;99563.47;144992;674;6002;-85
2022/01/10 04:00:54;;;;;;;9.10;6.85;;;;;;;13.50;69.93;99569.53;144992;576;6002;-87
2022/01/10 04:03:22;;;;;;;8.70;6.57;;;;;;;13.51;69.53;99573.91;144992;563;6002;-85
2022/01/10 04:05:52;;;;;;;9.32;6.80;;;;;;;13.50;70.25;99563.47;144992;608;6002;-86
2022/01/10 04:08:18;;;;;;;8.70;6.93;;;;;;;13.50;69.79;99555.66;144992;751;6002;-85
2022/01/10 04:10:46;;;;;;;8.65;6.62;;;;;;;13.49;70.13;99565.22;144992;590;6002;-87
2022/01/10 04:13:12;;;;;;;9.82;7.22;;;;;;;13.49;69.72;99565.22;144992;777;6002;-85
2022/01/10 04:15:39;;;;;;;9.93;7.57;;;;;;;13.49;69.60;99559.13;144992;630;6002;-85
2022/01/10 04:18:07;;;;;;;7.95;6.57;;;;;;;13.48;69.74;99562.62;144992;620;6002;-85
2022/01/10 04:20:37;;;;;;;8.65;7.40;;;;;;;13.48;69.82;99562.62;144992;581;6002;-84
2022/01/10 04:23:03;;;;;;;8.02;6.70;;;;;;;13.47;70.19;99555.66;144992;614;6002;-87
2022/01/10 04:25:30;;;;;;;9.15;7.53;;;;;;;13.48;70.10;99560.00;144992;578;6003;-84
2022/01/10 04:27:56;;;;;;;9.60;7.00;;;;;;;13.46;70.00;99561.72;144992;605;6002;-85
2022/01/10 04:30:23;;;;;;;8.43;7.20;;;;;;;13.46;69.74;99557.41;144992;610;6002;-88
2022/01/10 04:32:49;;;;;;;8.52;7.32;;;;;;;13.47;69.90;99558.25;144991;576;6002;-83
2022/01/10 04:35:16;;;;;;;10.48;7.68;;;;;;;13.45;70.03;99560.88;144992;552;6002;-84
2022/01/10 04:37:42;;;;;;;9.55;7.32;;;;;;;13.46;69.65;99566.94;144992;650;6002;-86
2022/01/10 04:40:10;;;;;;;11.35;7.07;;;;;;;13.46;70.06;99564.31;144992;580;6002;-87
2022/01/10 04:42:53;;;;;;;10.25;7.12;;;;;;;13.50;70.29;99564.31;144992;602;6002;-84
2022/01/10 04:45:19;;;;;;;8.68;7.03;;;;;;;13.57;70.23;99562.59;144992;571;6002;-83
2022/01/10 04:47:47;;;;;;;9.38;7.15;;;;;;;13.60;70.09;99557.38;144992;591;6002;-86
2022/01/10 04:50:49;;;;;;;9.98;7.15;;;;;;;13.61;69.77;99564.31;144992;584;6002;-84
2022/01/10 04:53:08;;;;;;;8.13;7.25;;;;;;;13.61;69.47;99569.53;144992;575;6004;-87
2022/01/10 04:55:34;;;;;;;8.30;6.47;;;;;;;13.60;69.85;99565.19;144992;597;6004;-84
2022/01/10 04:58:01;;;;;;;8.80;6.93;;;;;;;13.58;69.73;99565.22;144992;703;6004;-85
2022/01/10 05:00:27;;;;;;;7.18;6.37;;;;;;;13.57;70.17;99568.69;144992;567;6004;-88
2022/01/10 05:02:54;;;;;;;8.77;7.03;;;;;;;13.55;70.09;99573.03;144992;568;6004;-86
2022/01/10 05:05:21;;;;;;;7.65;6.43;;;;;;;13.57;70.10;99578.25;144992;612;6004;-86
2022/01/10 05:07:47;;;;;;;9.50;7.60;;;;;;;13.55;70.33;99573.03;144992;561;6004;-85
2022/01/10 05:10:17;;;;;;;8.52;7.03;;;;;;;13.57;70.42;99576.50;144992;592;6005;-87
2022/01/10 05:12:43;;;;;;;10.00;7.97;;;;;;;13.58;69.92;99569.53;144992;578;6004;-91
2022/01/10 05:15:11;;;;;;;10.48;8.07;;;;;;;13.60;69.85;99578.22;144992;562;6004;-85
2022/01/10 05:17:38;;;;;;;11.20;8.43;;;;;;;13.64;69.91;99572.16;144992;580;6005;-87
2022/01/10 05:20:13;;;;;;;10.88;8.75;;;;;;;13.69;69.88;99573.00;144992;603;6004;-86
2022/01/10 05:22:44;;;;;;;11.32;8.98;;;;;;;13.76;70.13;99564.31;144992;757;6004;-90
2022/01/10 05:25:14;;;;;;;11.05;9.15;;;;;;;13.82;70.16;99567.78;144992;597;6005;-88
2022/01/10 05:27:46;;;;;;;11.30;9.25;;;;;;;13.87;69.86;99568.63;144992;617;6004;-88
2022/01/10 05:30:16;;;;;;;11.00;9.18;;;;;;;13.94;69.60;99565.16;144992;605;6004;-86
2022/01/10 05:32:45;;;;;;;11.45;8.65;;;;;;;14.00;69.57;99567.75;144992;585;6005;-84
2022/01/10 05:35:12;;;;;;;13.35;9.60;;;;;;;14.04;69.27;99571.22;144992;567;6004;-83
2022/01/10 05:37:39;;;;;;;10.93;8.70;;;;;;;14.06;69.24;99574.66;144992;592;6004;-83
2022/01/10 05:40:06;;;;;;;11.60;8.93;;;;;;;14.07;69.16;99572.06;144992;675;6004;-84
2022/01/10 05:42:33;;;;;;;9.63;8.60;;;;;;;14.08;69.40;99565.97;144992;634;6004;-83
2022/01/10 05:45:02;;;;;;;9.40;8.40;;;;;;;14.09;69.18;99565.13;144992;610;6004;-82
2022/01/10 05:47:29;;;;;;;11.48;9.00;;;;;;;14.10;69.45;99569.44;144991;566;6000;-89
2022/01/10 05:50:02;;;;;;;18.75;8.90;;;;;;;14.10;69.39;99564.22;144992;626;6002;-85
2022/01/10 05:52:29;;;;;;;11.98;8.80;;;;;;;14.12;69.56;99569.44;144992;576;6002;-82
2022/01/10 05:54:56;;;;;;;13.52;9.90;;;;;;;14.10;69.69;99560.75;144992;577;6002;-83
2022/01/10 05:57:25;;;;;;;12.40;8.95;;;;;;;14.07;69.22;99572.06;144992;588;6002;-81
2022/01/10 05:59:51;;;;;;;14.82;10.02;;;;;;;14.04;69.34;99571.22;144992;566;6002;-82
2022/01/10 06:02:17;;;;;;;11.30;9.82;;;;;;;14.00;68.99;99582.50;144992;616;6002;-83
2022/01/10 06:04:44;;;;;;;11.30;9.57;;;;;;;13.96;69.29;99581.66;144991;673;6002;-82
2022/01/10 06:07:12;;;;;;;11.70;9.32;;;;;;;13.91;69.36;99584.28;144992;717;6002;-83
2022/01/10 06:09:39;;;;;;;14.80;9.00;;;;;;;13.86;69.18;99585.16;144992;582;6002;-80
2022/01/10 06:12:06;;;;;;;13.27;10.05;;;;;;;13.82;69.65;99584.28;144992;628;6002;-82
2022/01/10 06:14:32;;;;;;;12.40;9.85;;;;;;;13.78;69.31;99583.44;144992;566;6002;-83
2022/01/10 06:16:59;;;;;;;12.02;10.38;;;;;;;13.73;69.58;99574.75;144992;805;6002;-82
2022/01/10 06:19:25;;;;;;;14.18;10.75;;;;;;;13.71;69.62;99576.50;144991;597;6002;-82
2022/01/10 06:21:54;;;;;;;15.27;10.68;;;;;;;13.69;69.68;99577.34;144992;668;6002;-81
2022/01/10 06:24:21;;;;;;;12.20;8.82;;;;;;;13.67;69.68;99576.50;144992;563;6002;-81
2022/01/10 06:26:50;;;;;;;10.43;9.20;;;;;;;13.66;69.48;99572.16;144992;600;6002;-81
2022/01/10 06:29:17;;;;;;;11.05;8.73;;;;;;;13.66;69.77;99569.53;144992;587;6002;-82
2022/01/10 06:31:52;;;;;;;10.75;8.75;;;;;;;13.68;70.06;99571.28;144992;603;6002;-81
2022/01/10 06:34:18;;;;;;;11.05;8.82;;;;;;;13.72;69.99;99577.34;144992;571;6002;-81
2022/01/10 06:36:45;;;;;;;12.25;9.05;;;;;;;13.75;69.60;99580.81;144992;587;6002;-82
2022/01/10 06:39:12;;;;;;;11.52;8.75;;;;;;;13.76;69.58;99577.34;144992;699;6002;-82
2022/01/10 06:41:38;;;;;;;13.43;9.50;;;;;;;13.74;69.84;99581.72;144992;595;6002;-82
2022/01/10 06:44:05;;;;;;;11.23;8.73;;;;;;;13.75;69.96;99590.41;144992;613;6002;-81
2022/01/10 06:46:31;;;;;;;11.85;8.95;;;;;;;13.70;69.88;99590.41;144991;625;6002;-82
2022/01/10 06:48:59;;;;;;;15.02;12.15;;;;;;;13.69;69.88;99591.25;144992;564;6002;-82
2022/01/10 06:51:27;;;;;;;13.70;10.38;;;;;;;13.71;70.14;99588.66;144992;577;6002;-82
2022/01/10 06:53:54;;;;;;;13.10;10.80;;;;;;;13.71;69.95;99579.09;144991;598;6002;-80
2022/01/10 06:56:23;;;;;;;12.07;10.70;;;;;;;13.75;70.08;99582.56;144992;569;6002;-80
2022/01/10 06:58:50;;;;;;;13.85;10.23;;;;;;;13.74;69.94;99581.72;144992;566;6002;-79
2022/01/10 07:01:19;;;;;;;13.85;10.25;;;;;;;13.77;70.11;99583.44;144992;575;6002;-81
2022/01/10 07:03:45;;;;;;;17.52;10.52;;;;;;;13.78;69.98;99580.81;144992;569;6002;-84
2022/01/10 07:06:12;;;;;;;14.68;10.77;;;;;;;13.79;70.16;99582.56;144992;774;6002;-80
2022/01/10 07:08:38;;;;;;;13.85;11.23;;;;;;;13.82;70.21;99578.22;144992;605;6002;-81
2022/01/10 07:11:04;;;;;;;15.27;12.27;;;;;;;13.83;70.18;99587.78;144992;687;6002;-80
2022/01/10 07:13:31;;;;;;;16.37;12.60;;;;;;;13.84;70.07;99589.50;144992;591;6002;-80
2022/01/10 07:15:57;;;;;;;15.27;12.75;;;;;;;13.85;70.07;99591.25;144992;805;6002;-81
2022/01/10 07:18:24;;;;;;;15.40;11.75;;;;;;;13.85;70.39;99591.25;144992;633;6002;-79
2022/01/10 07:20:50;;;;;;;14.70;12.27;;;;;;;13.87;70.10;99586.88;144992;601;6002;-80
2022/01/10 07:23:17;;;;;;;16.60;12.48;;;;;;;13.88;70.21;99602.53;144992;569;6002;-80
2022/01/10 07:25:43;;;;;;;19.92;13.48;;;;;;;13.87;70.65;99599.94;144992;637;6002;-82
2022/01/10 07:28:10;;;;;;;19.73;13.93;;;;;;;13.85;70.47;99612.97;144991;605;6002;-81
2022/01/10 07:30:36;;;;;;;17.15;13.45;;;;;;;13.85;70.55;99605.16;144992;621;6002;-81
2022/01/10 07:33:03;;;;;;;16.20;13.20;;;;;;;13.83;70.70;99619.09;144992;661;6002;-83
2022/01/10 07:35:30;;;;;;;17.45;14.68;;;;;;;13.82;70.66;99619.94;144992;605;6002;-81
2022/01/10 07:37:56;;;;;;;21.12;15.77;;;;;;;13.82;70.53;99617.34;144991;596;6002;-81
2022/01/10 07:40:24;;;;;;;18.10;14.65;;;;;;;13.85;70.93;99617.34;144992;856;6002;-81
2022/01/10 07:42:50;;;;;;;17.62;14.73;;;;;;;13.84;70.54;99616.47;144992;754;6002;-81
2022/01/10 07:45:17;;;;;;;16.95;14.57;;;;;;;13.88;70.65;99617.34;144992;718;6002;-81
2022/01/10 07:47:46;;;;;;;29.17;17.42;;;;;;;13.90;70.61;99615.59;144992;757;6002;-82
2022/01/10 07:50:13;;;;;;;23.70;15.93;;;;;;;13.90;71.11;99605.16;144992;592;6002;-80
2022/01/10 07:52:39;;;;;;;23.00;15.70;;;;;;;13.93;70.73;99611.22;144992;589;6002;-81
2022/01/10 07:55:08;;;;;;;21.92;15.60;;;;;;;13.97;70.96;99609.50;144992;612;6002;-81
2022/01/10 07:57:34;;;;;;;18.90;13.75;;;;;;;14.00;70.36;99612.09;144992;593;6002;-80
2022/01/10 08:00:00;;;;;;;16.48;12.70;;;;;;;14.01;70.70;99606.00;144992;582;6002;-81
2022/01/10 08:02:27;;;;;;;17.42;12.50;;;;;;;14.02;71.05;99606.88;144992;596;6002;-81
2022/01/10 08:04:53;;;;;;;15.82;11.40;;;;;;;14.00;70.85;99609.50;144992;582;6002;-80
2022/01/10 08:07:20;;;;;;;11.95;8.20;;;;;;;13.94;70.83;99610.34;144992;671;6002;-81
2022/01/10 08:09:47;;;;;;;7.47;5.40;;;;;;;13.65;71.41;99607.78;144992;787;6002;-81
2022/01/10 08:12:13;;;;;;;2.97;1.83;;;;;;;13.63;71.72;99608.66;144992;569;6002;-81
2022/01/10 08:14:41;;;;;;;3.35;2.03;;;;;;;13.54;71.66;99610.41;144992;741;6010;-80
2022/01/10 08:17:07;;;;;;;2.20;1.65;;;;;;;13.49;71.58;99601.72;144991;564;6002;-81
2022/01/10 08:19:41;;;;;;;2.97;1.27;;;;;;;13.31;71.56;99602.53;144992;726;6002;-80
2022/01/10 08:22:11;;;;;;;2.70;1.40;;;;;;;13.28;71.94;99605.13;144992;577;6002;-81
2022/01/10 08:24:37;;;;;;;4.95;1.40;;;;;;;13.26;72.12;99606.88;144992;616;6002;-80
2022/01/10 08:27:04;;;;;;;2.40;1.30;;;;;;;13.11;72.08;99597.31;144992;569;6002;-82
2022/01/10 08:29:30;;;;;;;2.58;1.30;;;;;;;13.19;72.54;99595.56;144992;733;6002;-81
2022/01/10 08:32:00;;;;;;;2.95;1.77;;;;;;;13.31;71.62;99597.31;144992;704;6002;-80
2022/01/10 08:34:27;;;;;;;4.05;1.80;;;;;;;13.33;72.21;99590.41;144992;624;6002;-83
2022/01/10 08:36:56;;;;;;;3.92;1.90;;;;;;;13.51;71.63;99584.31;144992;730;6002;-81
2022/01/10 08:39:23;;;;;;;3.25;1.90;;;;;;;13.52;71.73;99574.75;144992;599;6003;-80
2022/01/10 08:41:49;;;;;;;5.30;1.83;;;;;;;13.65;70.72;99575.63;144992;606;6002;-81
2022/01/10 08:44:17;;;;;;;4.22;1.77;;;;;;;13.69;71.01;99565.19;144992;569;6002;-81
2022/01/10 08:46:45;;;;;;;4.37;2.22;;;;;;;13.81;71.00;99566.03;144992;579;6003;-80
2022/01/10 08:49:13;;;;;;;3.83;1.80;;;;;;;13.88;70.95;99568.63;144992;825;6002;-83
2022/01/10 08:51:41;;;;;;;2.80;1.10;;;;;;;13.76;70.85;99568.63;144992;637;6002;-82
2022/01/10 08:54:11;;;;;;;4.18;1.20;;;;;;;13.73;71.55;99572.13;144992;608;6002;-87
2022/01/10 08:56:40;;;;;;;2.40;1.10;;;;;;;13.77;71.31;99571.25;144992;590;6002;-84
2022/01/10 08:59:07;;;;;;;5.03;1.23;;;;;;;13.74;70.52;99566.06;144992;569;6002;-79
2022/01/10 09:01:34;;;;;;;3.20;0.98;;;;;;;13.37;71.82;99575.63;144992;699;6002;-80
2022/01/10 09:04:00;;;;;;;2.25;1.23;;;;;;;13.61;71.51;99566.94;144993;617;6002;-81
2022/01/10 09:06:27;;;;;;;2.00;1.25;;;;;;;13.53;72.48;99558.25;144993;569;6002;-82
2022/01/10 09:08:56;;;;;;;3.03;1.27;;;;;;;13.69;71.94;99565.19;144993;587;6002;-81
2022/01/10 09:11:27;;;;;;;1.77;0.90;;;;;;;13.75;71.17;99573.00;144993;587;6002;-81
2022/01/10 09:13:54;;;;;;;4.53;1.15;;;;;;;13.93;70.69;99556.44;144992;596;6002;-81
2022/01/10 09:16:20;;;;;;;4.10;1.40;;;;;;;14.03;70.41;99569.47;144993;719;6002;-80
2022/01/10 09:18:46;;;;;;;4.60;1.20;;;;;;;14.04;70.01;99566.00;144993;564;6002;-81
2022/01/10 09:21:13;;;;;;;3.60;1.25;;;;;;;13.68;71.14;99573.91;144993;639;6002;-82
2022/01/10 09:23:39;;;;;;;4.28;1.37;;;;;;;13.82;70.72;99573.84;144993;612;6002;-80
2022/01/10 09:26:06;;;;;;;2.40;1.10;;;;;;;13.65;71.20;99568.69;144993;579;6002;-79
2022/01/10 09:28:32;;;;;;;2.97;1.10;;;;;;;13.92;70.31;99554.72;144993;573;6002;-82
2022/01/10 09:30:59;;;;;;;3.62;1.70;;;;;;;13.77;71.05;99560.81;144993;594;6002;-80
2022/01/10 09:33:25;;;;;;;1.62;1.10;;;;;;;13.84;70.22;99569.53;144993;724;6002;-80
2022/01/10 09:35:52;;;;;;;3.53;1.52;;;;;;;13.71;70.25;99560.84;144992;571;6002;-80
2022/01/10 09:38:19;;;;;;;4.03;2.08;;;;;;;13.73;70.01;99553.88;144992;564;6003;-80
2022/01/10 09:40:46;;;;;;;2.20;1.62;;;;;;;13.51;71.11;99558.25;144992;564;6002;-80
2022/01/10 09:43:12;;;;;;;3.47;1.65;;;;;;;13.49;71.10;99559.13;144992;569;6002;-81
2022/01/10 09:45:39;;;;;;;2.40;1.60;;;;;;;13.69;70.62;99556.50;144992;563;6002;-80
2022/01/10 09:48:08;;;;;;;4.75;2.20;;;;;;;13.82;70.02;99552.97;144992;656;6002;-82
2022/01/10 09:50:34;;;;;;;3.65;2.20;;;;;;;13.64;70.28;99566.94;144993;575;6002;-80
2022/01/10 09:53:01;;;;;;;5.22;2.20;;;;;;;13.66;70.20;99559.97;144992;582;6002;-79
2022/01/10 09:55:31;;;;;;;5.37;3.08;;;;;;;13.40;71.87;99552.19;144993;645;6002;-80
2022/01/10 09:57:58;;;;;;;3.85;2.67;;;;;;;13.57;70.95;99568.69;144993;590;6002;-81
2022/01/10 10:00:25;;;;;;;3.33;2.50;;;;;;;13.55;70.71;99559.13;144993;594;6002;-86
2022/01/10 10:02:52;;;;;;;7.43;3.25;;;;;;;13.54;70.67;99544.34;144993;577;6002;-89
2022/01/10 10:05:20;;;;;;;5.65;4.03;;;;;;;13.45;71.86;99546.97;144993;780;6002;-87
2022/01/10 10:07:48;;;;;;;10.80;6.28;;;;;;;13.40;71.71;99537.41;144993;635;6002;-86
2022/01/10 10:10:29;;;;;;;7.43;4.03;;;;;;;13.66;71.24;99540.84;144993;620;6002;-87
2022/01/10 10:12:57;;;;;;;4.10;2.83;;;;;;;13.87;70.63;99524.28;144993;617;6002;-88
2022/01/10 10:15:28;;;;;;;4.80;2.40;;;;;;;13.59;72.00;99537.41;144993;621;6002;-82
2022/01/10 10:17:55;;;;;;;4.80;4.07;;;;;;;13.79;71.11;99529.50;144993;605;6002;-85
2022/01/10 10:20:22;;;;;;;2.62;1.85;;;;;;;13.92;70.60;99530.38;144993;707;6002;-87
2022/01/10 10:22:52;;;;;;;2.58;1.58;;;;;;;13.90;70.18;99529.50;144993;600;6002;-83
2022/01/10 10:25:21;;;;;;;2.72;1.55;;;;;;;13.81;70.29;99519.06;144993;617;6002;-86
2022/01/10 10:27:49;;;;;;;2.45;1.52;;;;;;;13.96;70.49;99525.12;144993;620;6002;-84
2022/01/10 10:30:26;;;;;;;5.43;1.55;;;;;;;14.47;69.02;99522.28;144993;617;6020;-85
2022/01/10 10:32:54;;;;;;;2.10;1.60;;;;;;;14.48;69.23;99513.59;144993;576;6002;-86
2022/01/10 10:35:20;;;;;;;4.32;1.75;;;;;;;14.96;68.15;99512.47;144993;590;6002;-83
2022/01/10 10:37:48;;;;;;;2.10;1.20;;;;;;;14.73;68.29;99503.06;144993;585;6002;-86
2022/01/10 10:40:16;;;;;;;3.58;1.30;;;;;;;14.55;68.82;99506.59;144993;579;6002;-83
2022/01/10 10:42:43;;;;;;;3.00;1.48;;;;;;;14.84;68.28;99503.84;144994;576;5002;-85
2022/01/10 10:45:12;;;;;;;6.93;3.90;;;;;;;14.80;66.80;99499.50;144994;588;5002;-83
2022/01/10 10:47:43;;;;;;;5.50;4.05;;;;;;;14.78;67.49;99500.38;144994;618;5002;-83
2022/01/10 10:50:10;;;;;;;8.68;5.80;;;;;;;14.84;67.78;99506.47;144994;605;5002;-83
2022/01/10 10:52:39;;;;;;;31.95;20.85;;;;;;;14.77;66.80;99496.91;144994;565;5002;-85
2022/01/10 10:55:11;;;;;;;77.18;50.55;;;;;;;14.72;67.62;99503.06;144994;623;5002;-86
2022/01/10 10:57:38;;;;;;;6.95;2.80;;;;;;;14.74;67.84;99498.69;144994;617;5002;-87
2022/01/10 11:00:12;;;;;;;2.62;1.92;;;;;;;14.47;66.57;99501.41;144994;563;5002;-85
2022/01/10 11:02:39;;;;;;;20.42;13.73;;;;;;;14.30;68.35;99498.03;144994;576;5002;-85
2022/01/10 11:05:07;;;;;;;7.97;4.87;;;;;;;14.45;67.91;99503.16;144994;608;5002;-85
2022/01/10 11:07:36;;;;;;;6.05;2.65;;;;;;;14.38;68.13;99505.81;144994;570;5002;-84
2022/01/10 11:10:07;;;;;;;6.53;3.42;;;;;;;14.30;68.37;99503.25;144994;618;5002;-85
2022/01/10 11:12:44;;;;;;;7.05;4.55;;;;;;;14.39;67.74;99510.16;144994;593;5002;-83
2022/01/10 11:15:10;;;;;;;12.95;7.65;;;;;;;14.42;67.68;99510.16;144994;602;5002;-85
2022/01/10 11:17:40;;;;;;;4.90;2.70;;;;;;;14.31;67.84;99507.59;144994;595;5002;-85
2022/01/10 11:20:13;;;;;;;6.78;2.62;;;;;;;14.27;67.58;99505.84;144994;779;5002;-86
2022/01/10 11:22:42;;;;;;;5.60;3.45;;;;;;;14.19;67.70;99507.63;144994;615;5003;-86
2022/01/10 11:25:43;;;;;;;5.78;2.80;;;;;;;14.10;68.38;99511.16;144994;579;5002;-87
2022/01/10 11:28:12;;;;;;;7.70;2.75;;;;;;;14.10;67.80;99506.81;144994;570;5004;-84
2022/01/10 11:30:44;;;;;;;3.92;2.40;;;;;;;14.19;68.32;99498.09;144994;570;5004;-89
2022/01/10 11:33:46;;;;;;;;;;;;;;;;;;;;;
2022/01/10 11:36:18;;;;;;;2.65;1.70;;;;;;;14.19;69.43;99486.75;144994;594;5002;-86
2022/01/10 11:38:54;;;;;;;4.05;1.87;;;;;;;14.44;68.43;99487.50;144994;602;5002;-84
2022/01/10 11:41:25;;;;;;;1.77;1.37;;;;;;;14.45;68.70;99490.13;144994;592;5002;-84
2022/01/10 11:44:13;;;;;;;3.47;1.30;;;;;;;14.43;68.55;99494.47;144994;636;5002;-86
2022/01/10 11:46:47;;;;;;;4.40;1.80;;;;;;;14.43;68.81;99493.62;144993;598;5002;-86
2022/01/10 11:49:23;;;;;;;4.28;2.15;;;;;;;14.39;68.64;99492.75;144994;629;5002;-88
2022/01/10 11:52:11;;;;;;;3.53;1.52;;;;;;;14.65;67.86;99484.81;144994;611;5002;-83
2022/01/10 11:54:40;;;;;;;2.97;1.60;;;;;;;15.04;66.81;99481.91;144994;620;5004;-86
2022/01/10 11:57:12;;;;;;;2.40;1.40;;;;;;;15.13;66.19;99481.84;144994;590;5004;-83